sensor_id;sensor_type;location;lat;lon;timestamp;pressure;altitude;pressure_sealevel;temperature;humidity
58775;BME280;44545;47.480;19.024;2023-02-28T03:45:13;101282.06;;;1.17;57.70
58775;BME280;44545;47.480;19.024;2023-02-28T03:48:27;101282.06;;;1.17;57.70
58775;BME280;44545;47.480;19.024;2023-02-28T03:51:32;101286.28;;;0.60;58.79
58775;BME280;44545;47.480;19.024;2023-02-28T03:54:48;101285.38;;;0.59;58.95
58775;BME280;44545;47.480;19.024;2023-02-28T03:58:05;101290.00;;;0.71;59.05
58775;BME280;44545;47.480;19.024;2023-02-28T04:01:18;101296.12;;;0.80;58.58
58775;BME280;44545;47.480;19.024;2023-02-28T04:04:22;101284.28;;;0.73;58.14
58775;BME280;44545;47.480;19.024;2023-02-28T04:07:24;101295.81;;;0.77;57.82
58775;BME280;44545;47.480;19.024;2023-02-28T04:10:27;101285.53;;;0.77;58.13
58775;BME280;44545;47.480;19.024;2023-02-28T04:13:29;101280.13;;;0.82;58.26
58775;BME280;44545;47.480;19.024;2023-02-28T04:16:33;101281.22;;;0.84;58.95
58775;BME280;44545;47.480;19.024;2023-02-28T04:19:37;101280.47;;;0.85;58.47
58775;BME280;44545;47.480;19.024;2023-02-28T04:22:39;101283.19;;;0.87;58.81
58775;BME280;44545;47.480;19.024;2023-02-28T04:25:41;101288.66;;;0.90;58.81
58775;BME280;44545;47.480;19.024;2023-02-28T04:28:44;101282.13;;;0.85;58.76
58775;BME280;44545;47.480;19.024;2023-02-28T04:31:46;101275.59;;;0.80;58.96
58775;BME280;44545;47.480;19.024;2023-02-28T04:34:49;101276.66;;;0.82;58.51
58775;BME280;44545;47.480;19.024;2023-02-28T04:37:51;101276.22;;;0.86;58.31
58775;BME280;44545;47.480;19.024;2023-02-28T04:40:53;101279.06;;;0.80;58.91
58775;BME280;44545;47.480;19.024;2023-02-28T04:43:55;101278.16;;;0.80;58.32
58775;BME280;44545;47.480;19.024;2023-02-28T04:46:58;101274.41;;;0.85;59.00
58775;BME280;44545;47.480;19.024;2023-02-28T04:50:00;101280.13;;;0.82;58.72
58775;BME280;44545;47.480;19.024;2023-02-28T04:53:03;101283.03;;;0.85;58.63
58775;BME280;44545;47.480;19.024;2023-02-28T04:56:06;101279.97;;;0.81;58.16
58775;BME280;44545;47.480;19.024;2023-02-28T04:59:09;101278.16;;;0.80;58.37
58775;BME280;44545;47.480;19.024;2023-02-28T05:02:11;101279.38;;;0.83;58.69
58775;BME280;44545;47.480;19.024;2023-02-28T05:05:14;101272.41;;;0.98;58.79
58775;BME280;44545;47.480;19.024;2023-02-28T05:08:20;101278.69;;;0.93;58.05
58775;BME280;44545;47.480;19.024;2023-02-28T05:11:28;101279.59;;;0.94;57.49
58775;BME280;44545;47.480;19.024;2023-02-28T05:14:35;101278.47;;;0.99;58.15
58775;BME280;44545;47.480;19.024;2023-02-28T05:17:38;101284.66;;;1.01;57.73
58775;BME280;44545;47.480;19.024;2023-02-28T05:20:40;101272.97;;;1.12;57.39
58775;BME280;44545;47.480;19.024;2023-02-28T05:23:43;101281.13;;;1.16;57.12
58775;BME280;44545;47.480;19.024;2023-02-28T05:26:46;101277.16;;;1.27;57.38
58775;BME280;44545;47.480;19.024;2023-02-28T05:29:48;101281.22;;;1.25;56.93
58775;BME280;44545;47.480;19.024;2023-02-28T05:32:51;101284.97;;;1.20;57.24
58775;BME280;44545;47.480;19.024;2023-02-28T05:35:53;101290.97;;;1.12;57.44
58775;BME280;44545;47.480;19.024;2023-02-28T05:38:56;101286.72;;;1.12;56.84
58775;BME280;44545;47.480;19.024;2023-02-28T05:41:58;101293.84;;;1.15;57.59
58775;BME280;44545;47.480;19.024;2023-02-28T05:45:00;101292.94;;;1.14;57.51
58775;BME280;44545;47.480;19.024;2023-02-28T05:48:03;101291.19;;;1.22;57.37
58775;BME280;44545;47.480;19.024;2023-02-28T05:51:06;101292.34;;;1.17;58.10
58775;BME280;44545;47.480;19.024;2023-02-28T05:54:09;101302.19;;;1.21;57.49
58775;BME280;44545;47.480;19.024;2023-02-28T05:57:14;101301.19;;;1.27;57.62
58775;BME280;44545;47.480;19.024;2023-02-28T06:00:26;101306.06;;;1.33;57.82
58775;BME280;44545;47.480;19.024;2023-02-28T06:03:28;101304.37;;;1.34;56.76
58775;BME280;44545;47.480;19.024;2023-02-28T06:06:31;101313.94;;;1.35;56.87
58775;BME280;44545;47.480;19.024;2023-02-28T06:09:33;101300.53;;;1.46;56.66
58775;BME280;44545;47.480;19.024;2023-02-28T06:12:36;101306.34;;;1.52;56.13
58775;BME280;44545;47.480;19.024;2023-02-28T06:15:39;101315.56;;;1.34;56.10
58775;BME280;44545;47.480;19.024;2023-02-28T06:18:41;101307.34;;;1.45;55.80
58775;BME280;44545;47.480;19.024;2023-02-28T06:21:44;101307.53;;;1.47;55.79
58775;BME280;44545;47.480;19.024;2023-02-28T06:24:46;101310.72;;;1.53;55.55
58775;BME280;44545;47.480;19.024;2023-02-28T06:27:48;101318.09;;;1.74;55.57
58775;BME280;44545;47.480;19.024;2023-02-28T06:30:51;101318.91;;;1.58;55.19
58775;BME280;44545;47.480;19.024;2023-02-28T06:33:55;101316.88;;;1.71;55.83
58775;BME280;44545;47.480;19.024;2023-02-28T06:36:57;101321.03;;;1.86;55.85
58775;BME280;44545;47.480;19.024;2023-02-28T06:40:05;101314.47;;;2.06;55.42
58775;BME280;44545;47.480;19.024;2023-02-28T06:43:09;101321.59;;;2.08;54.17
58775;BME280;44545;47.480;19.024;2023-02-28T06:46:13;101325.25;;;2.19;54.44
58775;BME280;44545;47.480;19.024;2023-02-28T06:49:16;101333.59;;;2.25;53.22
58775;BME280;44545;47.480;19.024;2023-02-28T06:52:19;101331.50;;;2.30;53.07
58775;BME280;44545;47.480;19.024;2023-02-28T06:55:21;101338.72;;;2.25;53.43
58775;BME280;44545;47.480;19.024;2023-02-28T06:58:24;101330.38;;;2.61;52.79
58775;BME280;44545;47.480;19.024;2023-02-28T07:01:26;101320.72;;;2.85;51.83
58775;BME280;44545;47.480;19.024;2023-02-28T07:04:30;101323.72;;;2.80;51.51
58775;BME280;44545;47.480;19.024;2023-02-28T07:07:32;101327.25;;;3.07;50.38
58775;BME280;44545;47.480;19.024;2023-02-28T07:10:38;101328.25;;;3.44;49.94
58775;BME280;44545;47.480;19.024;2023-02-28T07:13:40;101329.25;;;3.81;49.27
58775;BME280;44545;47.480;19.024;2023-02-28T07:16:43;101330.28;;;3.91;47.46
58775;BME280;44545;47.480;19.024;2023-02-28T07:19:46;101336.38;;;4.20;48.14
58775;BME280;44545;47.480;19.024;2023-02-28T07:22:50;101343.59;;;4.41;47.77
58775;BME280;44545;47.480;19.024;2023-02-28T07:25:58;101340.19;;;4.23;47.20
58775;BME280;44545;47.480;19.024;2023-02-28T07:29:00;101342.00;;;4.24;47.51
58775;BME280;44545;47.480;19.024;2023-02-28T07:32:03;101342.72;;;3.87;47.33
58775;BME280;44545;47.480;19.024;2023-02-28T07:35:06;101343.56;;;4.05;47.27
58775;BME280;44545;47.480;19.024;2023-02-28T07:38:09;101349.06;;;4.08;46.69
58775;BME280;44545;47.480;19.024;2023-02-28T07:41:12;101347.72;;;4.03;47.26
58775;BME280;44545;47.480;19.024;2023-02-28T07:44:14;101355.87;;;4.07;46.97
58775;BME280;44545;47.480;19.024;2023-02-28T07:47:17;101355.37;;;4.75;44.85
58775;BME280;44545;47.480;19.024;2023-02-28T07:50:19;101357.56;;;5.09;43.45
58775;BME280;44545;47.480;19.024;2023-02-28T07:53:22;101351.75;;;5.49;42.44
58775;BME280;44545;47.480;19.024;2023-02-28T07:56:24;101355.59;;;5.44;43.26
58775;BME280;44545;47.480;19.024;2023-02-28T07:59:27;101357.34;;;5.54;42.80
58775;BME280;44545;47.480;19.024;2023-02-28T08:02:32;101351.91;;;5.51;42.60
58775;BME280;44545;47.480;19.024;2023-02-28T08:05:38;101345.78;;;5.69;41.96
58775;BME280;44545;47.480;19.024;2023-02-28T08:08:41;101346.06;;;6.01;42.17
58775;BME280;44545;47.480;19.024;2023-02-28T08:11:44;101346.78;;;6.29;40.26
58775;BME280;44545;47.480;19.024;2023-02-28T08:14:46;101344.56;;;6.14;40.72
58775;BME280;44545;47.480;19.024;2023-02-28T08:17:48;101342.88;;;6.14;40.45
58775;BME280;44545;47.480;19.024;2023-02-28T08:20:51;101346.78;;;6.19;41.18
58775;BME280;44545;47.480;19.024;2023-02-28T08:23:53;101339.59;;;6.87;39.43
58775;BME280;44545;47.480;19.024;2023-02-28T08:26:56;101337.34;;;7.75;37.75
58775;BME280;44545;47.480;19.024;2023-02-28T08:29:58;101340.38;;;7.49;37.34
58775;BME280;44545;47.480;19.024;2023-02-28T08:33:00;101337.47;;;7.98;36.40
58775;BME280;44545;47.480;19.024;2023-02-28T08:36:04;101343.66;;;8.55;36.33
58775;BME280;44545;47.480;19.024;2023-02-28T08:39:07;101335.56;;;8.62;36.09
58775;BME280;44545;47.480;19.024;2023-02-28T08:42:09;101334.59;;;8.50;36.71
58775;BME280;44545;47.480;19.024;2023-02-28T08:45:13;101327.28;;;8.89;34.59
58775;BME280;44545;47.480;19.024;2023-02-28T08:48:16;101338.63;;;8.68;35.42
58775;BME280;44545;47.480;19.024;2023-02-28T08:51:21;101344.31;;;8.30;36.05
58775;BME280;44545;47.480;19.024;2023-02-28T08:54:28;101339.47;;;8.35;36.04
58775;BME280;44545;47.480;19.024;2023-02-28T08:57:33;101333.47;;;8.46;36.04
58775;BME280;44545;47.480;19.024;2023-02-28T09:00:35;101329.47;;;8.39;36.18
58775;BME280;44545;47.480;19.024;2023-02-28T09:03:39;101333.50;;;8.58;36.96
58775;BME280;44545;47.480;19.024;2023-02-28T09:06:43;101324.22;;;8.06;36.89
58775;BME280;44545;47.480;19.024;2023-02-28T09:09:46;101336.94;;;8.68;36.47
58775;BME280;44545;47.480;19.024;2023-02-28T09:12:57;101343.44;;;8.52;36.91
58775;BME280;44545;47.480;19.024;2023-02-28T09:16:01;101339.09;;;8.74;35.49
58775;BME280;44545;47.480;19.024;2023-02-28T09:19:10;101330.06;;;9.50;35.09
58775;BME280;44545;47.480;19.024;2023-02-28T09:22:13;101327.72;;;9.90;33.15
58775;BME280;44545;47.480;19.024;2023-02-28T09:25:15;101338.41;;;9.81;33.55
58775;BME280;44545;47.480;19.024;2023-02-28T09:28:18;101329.06;;;9.96;33.98
58775;BME280;44545;47.480;19.024;2023-02-28T09:31:24;101337.94;;;9.16;36.12
58775;BME280;44545;47.480;19.024;2023-02-28T09:34:27;101342.75;;;8.76;36.02
58775;BME280;44545;47.480;19.024;2023-02-28T09:37:30;101344.50;;;8.65;36.30
58775;BME280;44545;47.480;19.024;2023-02-28T09:40:37;101345.41;;;8.66;35.79
58775;BME280;44545;47.480;19.024;2023-02-28T09:43:44;101343.66;;;8.88;36.80
58775;BME280;44545;47.480;19.024;2023-02-28T09:46:52;101345.31;;;9.33;35.08
58775;BME280;44545;47.480;19.024;2023-02-28T09:49:59;101340.41;;;9.03;35.18
58775;BME280;44545;47.480;19.024;2023-02-28T09:53:20;101335.81;;;9.34;35.41
58775;BME280;44545;47.480;19.024;2023-02-28T09:56:30;101331.41;;;9.45;35.30
58775;BME280;44545;47.480;19.024;2023-02-28T10:00:05;101342.03;;;9.24;36.63
58775;BME280;44545;47.480;19.024;2023-02-28T10:03:30;101332.09;;;9.42;35.31
58775;BME280;44545;47.480;19.024;2023-02-28T10:06:48;101323.25;;;9.28;35.49
58775;BME280;44545;47.480;19.024;2023-02-28T10:09:53;101333.72;;;8.95;36.54
58775;BME280;44545;47.480;19.024;2023-02-28T10:12:59;101328.56;;;9.30;34.57
58775;BME280;44545;47.480;19.024;2023-02-28T10:16:09;101325.59;;;10.33;33.89
58775;BME280;44545;47.480;19.024;2023-02-28T10:19:22;101316.16;;;10.85;33.74
58775;BME280;44545;47.480;19.024;2023-02-28T10:22:31;101313.53;;;11.63;31.14
58775;BME280;44545;47.480;19.024;2023-02-28T10:25:37;101323.31;;;10.62;33.13
58775;BME280;44545;47.480;19.024;2023-02-28T10:28:40;101312.41;;;10.43;32.98
58775;BME280;44545;47.480;19.024;2023-02-28T10:31:43;101316.44;;;9.54;33.70
58775;BME280;44545;47.480;19.024;2023-02-28T10:34:51;101315.37;;;9.87;35.12
58775;BME280;44545;47.480;19.024;2023-02-28T10:37:59;101304.28;;;10.27;33.43
58775;BME280;44545;47.480;19.024;2023-02-28T10:41:11;101299.34;;;10.18;33.93
58775;BME280;44545;47.480;19.024;2023-02-28T10:44:23;101295.63;;;11.03;33.42
58775;BME280;44545;47.480;19.024;2023-02-28T10:47:25;101297.25;;;11.67;31.24
58775;BME280;44545;47.480;19.024;2023-02-28T10:50:32;101293.22;;;11.06;32.48
58775;BME280;44545;47.480;19.024;2023-02-28T10:53:52;101292.50;;;10.82;33.24
58775;BME280;44545;47.480;19.024;2023-02-28T10:57:19;101287.59;;;10.87;32.39
58775;BME280;44545;47.480;19.024;2023-02-28T11:00:24;101293.03;;;9.42;34.71
58775;BME280;44545;47.480;19.024;2023-02-28T11:03:34;101301.19;;;8.54;36.70
58775;BME280;44545;47.480;19.024;2023-02-28T11:06:37;101293.81;;;8.49;36.39
58775;BME280;44545;47.480;19.024;2023-02-28T11:09:40;101287.63;;;9.27;35.63
58775;BME280;44545;47.480;19.024;2023-02-28T11:12:44;101282.75;;;9.32;35.58
58775;BME280;44545;47.480;19.024;2023-02-28T11:15:59;101283.31;;;9.40;35.73
58775;BME280;44545;47.480;19.024;2023-02-28T11:19:04;101289.28;;;9.50;35.77
58775;BME280;44545;47.480;19.024;2023-02-28T11:22:09;101281.47;;;9.62;35.84
58775;BME280;44545;47.480;19.024;2023-02-28T11:25:31;101284.56;;;10.05;35.40
58775;BME280;44545;47.480;19.024;2023-02-28T11:28:38;101281.63;;;10.26;34.93
58775;BME280;44545;47.480;19.024;2023-02-28T11:31:41;101287.53;;;9.86;36.53
58775;BME280;44545;47.480;19.024;2023-02-28T11:34:44;101268.56;;;10.62;34.19
58775;BME280;44545;47.480;19.024;2023-02-28T11:37:47;101273.97;;;10.15;35.33
58775;BME280;44545;47.480;19.024;2023-02-28T11:44:48;101283.78;;;8.09;37.83
58775;BME280;44545;47.480;19.024;2023-02-28T11:51:35;101275.94;;;7.75;40.63
58775;BME280;44545;47.480;19.024;2023-02-28T12:05:16;101264.94;;;9.62;35.96
58775;BME280;44545;47.480;19.024;2023-02-28T12:08:44;101260.44;;;9.96;34.99
58775;BME280;44545;47.480;19.024;2023-02-28T12:18:02;101252.84;;;9.99;37.29
58775;BME280;44545;47.480;19.024;2023-02-28T12:24:44;101244.31;;;10.90;34.40
58775;BME280;44545;47.480;19.024;2023-02-28T12:27:51;101238.72;;;10.84;36.24
58775;BME280;44545;47.480;19.024;2023-02-28T12:31:03;101226.87;;;11.02;33.87
58775;BME280;44545;47.480;19.024;2023-02-28T12:34:15;101231.88;;;10.34;35.04
58775;BME280;44545;47.480;19.024;2023-02-28T12:40:52;101220.16;;;10.41;35.15
58775;BME280;44545;47.480;19.024;2023-02-28T12:44:20;101211.72;;;11.10;34.16
58775;BME280;44545;47.480;19.024;2023-02-28T12:47:23;101221.19;;;10.06;35.93
58775;BME280;44545;47.480;19.024;2023-02-28T12:50:27;101214.03;;;10.40;35.59
58775;BME280;44545;47.480;19.024;2023-02-28T12:56:54;101214.72;;;10.38;35.86
58775;BME280;44545;47.480;19.024;2023-02-28T13:00:03;101214.50;;;10.10;37.91
58775;BME280;44545;47.480;19.024;2023-02-28T13:03:35;101210.84;;;10.45;35.77
58775;BME280;44545;47.480;19.024;2023-02-28T13:10:05;101208.66;;;10.26;35.97
58775;BME280;44545;47.480;19.024;2023-02-28T13:13:17;101207.00;;;10.39;35.66
58775;BME280;44545;47.480;19.024;2023-02-28T13:16:23;101199.31;;;10.41;36.36
58775;BME280;44545;47.480;19.024;2023-02-28T13:19:28;101198.56;;;10.05;37.03
58775;BME280;44545;47.480;19.024;2023-02-28T13:29:04;101192.41;;;9.43;38.66
58775;BME280;44545;47.480;19.024;2023-02-28T13:35:38;101193.81;;;9.02;40.36
58775;BME280;44545;47.480;19.024;2023-02-28T13:38:55;101190.19;;;8.88;40.83
58775;BME280;44545;47.480;19.024;2023-02-28T13:45:32;101186.03;;;9.14;40.07
58775;BME280;44545;47.480;19.024;2023-02-28T13:48:40;101181.38;;;8.98;40.41
58775;BME280;44545;47.480;19.024;2023-02-28T13:51:45;101173.47;;;8.85;41.04
58775;BME280;44545;47.480;19.024;2023-02-28T14:02:19;101171.72;;;8.04;43.67
58775;BME280;44545;47.480;19.024;2023-02-28T14:05:26;101168.72;;;8.10;43.43
58775;BME280;44545;47.480;19.024;2023-02-28T14:08:33;101175.13;;;8.03;43.65
58775;BME280;44545;47.480;19.024;2023-02-28T14:11:41;101169.66;;;7.67;43.38
58775;BME280;44545;47.480;19.024;2023-02-28T14:17:51;101167.09;;;8.00;43.63
58775;BME280;44545;47.480;19.024;2023-02-28T14:24:19;101170.22;;;7.63;43.59
58775;BME280;44545;47.480;19.024;2023-02-28T14:31:29;101169.97;;;7.05;44.59
58775;BME280;44545;47.480;19.024;2023-02-28T14:37:41;101155.34;;;7.28;44.98
58775;BME280;44545;47.480;19.024;2023-02-28T14:40:45;101159.28;;;7.23;44.72
58775;BME280;44545;47.480;19.024;2023-02-28T14:43:55;101160.06;;;7.44;44.77
58775;BME280;44545;47.480;19.024;2023-02-28T14:47:00;101155.50;;;7.29;45.38
58775;BME280;44545;47.480;19.024;2023-02-28T14:50:23;101155.69;;;7.10;46.10
58775;BME280;44545;47.480;19.024;2023-02-28T14:53:28;101150.56;;;7.00;45.73
58775;BME280;44545;47.480;19.024;2023-02-28T14:56:38;101161.59;;;6.98;45.56
58775;BME280;44545;47.480;19.024;2023-02-28T14:59:41;101149.03;;;6.92;45.98
58775;BME280;44545;47.480;19.024;2023-02-28T15:02:44;101159.97;;;6.78;46.41
58775;BME280;44545;47.480;19.024;2023-02-28T15:05:58;101165.34;;;6.91;47.21
58775;BME280;44545;47.480;19.024;2023-02-28T15:09:09;101155.28;;;6.84;46.15
58775;BME280;44545;47.480;19.024;2023-02-28T15:12:14;101166.84;;;6.77;46.51
58775;BME280;44545;47.480;19.024;2023-02-28T15:15:18;101167.22;;;6.82;47.04
58775;BME280;44545;47.480;19.024;2023-02-28T15:22:01;101165.03;;;6.66;47.02
58775;BME280;44545;47.480;19.024;2023-02-28T15:25:07;101163.09;;;6.63;47.29
58775;BME280;44545;47.480;19.024;2023-02-28T15:28:16;101168.94;;;6.50;47.79
58775;BME280;44545;47.480;19.024;2023-02-28T15:31:28;101163.78;;;6.40;48.67
58775;BME280;44545;47.480;19.024;2023-02-28T15:34:45;101160.16;;;6.48;47.17
58775;BME280;44545;47.480;19.024;2023-02-28T15:38:01;101159.34;;;6.60;47.23
58775;BME280;44545;47.480;19.024;2023-02-28T15:41:04;101154.34;;;6.51;47.45
58775;BME280;44545;47.480;19.024;2023-02-28T15:47:27;101158.25;;;6.25;48.09
58775;BME280;44545;47.480;19.024;2023-02-28T15:50:31;101163.31;;;6.03;49.56
58775;BME280;44545;47.480;19.024;2023-02-28T15:53:59;101154.88;;;6.16;49.62
58775;BME280;44545;47.480;19.024;2023-02-28T15:57:07;101156.69;;;5.97;50.59
58775;BME280;44545;47.480;19.024;2023-02-28T16:00:19;101162.72;;;5.77;51.33
58775;BME280;44545;47.480;19.024;2023-02-28T16:03:26;101166.72;;;5.63;51.54
58775;BME280;44545;47.480;19.024;2023-02-28T16:06:42;101159.72;;;5.62;51.87
58775;BME280;44545;47.480;19.024;2023-02-28T16:09:45;101160.75;;;5.64;52.30
58775;BME280;44545;47.480;19.024;2023-02-28T16:12:49;101162.56;;;5.55;52.36
58775;BME280;44545;47.480;19.024;2023-02-28T16:15:51;101165.41;;;5.48;52.33
58775;BME280;44545;47.480;19.024;2023-02-28T16:18:54;101176.63;;;5.38;52.78
58775;BME280;44545;47.480;19.024;2023-02-28T16:21:58;101174.91;;;5.28;53.03
58775;BME280;44545;47.480;19.024;2023-02-28T16:25:00;101181.44;;;5.14;53.68
